Terminal Aerodrome Forecast
Issued by NWS Corpus Christi, TX

Current Version | Previous Version | Text Only | Print | Product List | Glossary Off
Versions: 1 2 3 4 5 6 7 8 9 10 11 12 13 14 15 16

907
FTUS44 KCRP 292330
TAFVCT
TAF
KVCT 292330Z 3000/3024 33005KT P6SM SCT050
     FM300200 03005KT P6SM FEW015
     FM300800 VRB04KT P6SM SCT015
      TEMPO 3010/3012 5SM BR BKN015
     FM301500 05008KT P6SM VCSH SCT050=

USA.gov is the U.S. government's official web portal to all federal, state and local government web resources and services.